Time;durP1;ratioP1;P1;durP2;ratioP2;P2;SDS_P1;SDS_P2;PMS_P1;PMS_P2;Temp;Humidity;BMP_temperature;BMP_pressure;BME280_temperature;BME280_humidity;BME280_pressure;Samples;Min_cycle;Max_cycle;Signal;HPM_P1;HPM_P2
2023/05/18 00:02:29;;;;;;;5.20;2.10;;;9.60;99.90;;;9.55;99.87;102015.75;5167851;28;20046;-78
2023/05/18 00:05:01;;;;;;;5.32;2.00;;;9.50;99.90;;;9.52;100.00;102016.47;5186362;28;20416;-79
2023/05/18 00:07:33;;;;;;;3.20;1.83;;;9.50;99.90;;;9.48;100.00;102022.28;5172969;28;20042;-79
2023/05/18 00:10:07;;;;;;;3.00;1.73;;;9.40;99.90;;;9.46;100.00;102021.31;5189490;28;20046;-79
2023/05/18 00:12:41;;;;;;;4.15;1.88;;;9.40;99.90;;;9.40;100.00;102007.94;5192776;28;20030;-80
2023/05/18 00:15:13;;;;;;;4.63;1.95;;;9.40;99.90;;;9.38;100.00;102021.66;5179762;28;20077;-79
2023/05/18 00:17:45;;;;;;;3.65;1.98;;;9.30;99.90;;;9.34;100.00;102014.50;5188839;28;20057;-78
2023/05/18 00:20:20;;;;;;;5.57;1.88;;;9.30;99.90;;;9.31;100.00;102017.78;5172466;28;20038;-79
2023/05/18 00:22:53;;;;;;;4.43;1.77;;;9.30;99.90;;;9.28;100.00;102020.22;5164928;28;20050;-79
2023/05/18 00:25:25;;;;;;;4.07;1.63;;;9.20;99.90;;;9.26;100.00;102016.66;5186792;28;20052;-79
2023/05/18 00:27:58;;;;;;;5.82;2.00;;;9.20;99.90;;;9.23;100.00;102017.34;5191447;28;20045;-79
2023/05/18 00:30:30;;;;;;;3.00;1.83;;;9.20;99.90;;;9.18;100.00;102018.75;5190167;28;20033;-80
2023/05/18 00:33:02;;;;;;;3.63;1.88;;;9.20;99.90;;;9.15;100.00;102015.09;5180588;28;20496;-80
2023/05/18 00:35:34;;;;;;;3.38;1.67;;;9.10;99.90;;;9.11;100.00;102021.81;5160098;28;20046;-79
2023/05/18 00:38:07;;;;;;;2.58;1.80;;;9.10;99.90;;;9.05;100.00;102015.34;5177652;28;20057;-79
2023/05/18 00:40:39;;;;;;;8.30;1.67;;;9.00;99.90;;;9.01;100.00;102024.69;5158799;28;20138;-79
2023/05/18 00:43:13;;;;;;;5.72;1.77;;;9.00;99.90;;;8.97;100.00;102018.38;5164101;28;20061;-79
2023/05/18 00:45:45;;;;;;;5.22;2.03;;;8.90;99.90;;;8.93;100.00;102021.63;5161979;28;20128;-79
2023/05/18 00:48:17;;;;;;;3.50;1.98;;;8.90;99.90;;;8.88;100.00;102020.44;5151752;28;20595;-79
2023/05/18 00:50:49;;;;;;;3.90;1.92;;;8.90;99.90;;;8.86;100.00;102022.03;5163567;28;20507;-79
2023/05/18 00:53:21;;;;;;;4.07;1.73;;;8.90;99.90;;;8.83;100.00;102019.25;5188295;28;20038;-79
2023/05/18 00:55:54;;;;;;;4.05;1.90;;;8.80;99.90;;;8.80;100.00;102018.16;5182276;28;20050;-79
2023/05/18 00:58:28;;;;;;;2.35;1.48;;;8.80;99.90;;;8.76;100.00;102013.59;5167582;28;20060;-79
2023/05/18 01:01:04;;;;;;;2.88;2.10;;;8.80;99.90;;;8.75;100.00;102017.00;5180603;28;20415;-79
2023/05/18 01:03:37;;;;;;;5.70;1.77;;;8.70;99.90;;;8.71;100.00;102018.50;5171579;28;20448;-79
2023/05/18 01:06:11;;;;;;;5.03;1.73;;;8.70;99.90;;;8.66;100.00;102022.50;5170407;28;20050;-77
2023/05/18 01:08:43;;;;;;;3.50;1.48;;;8.70;99.90;;;8.62;100.00;102018.84;5159722;28;20109;-78
2023/05/18 01:11:33;;;;;;;4.88;2.10;;;8.60;99.90;;;8.57;100.00;102015.03;5167792;28;20042;-78
2023/05/18 01:14:15;;;;;;;3.58;1.73;;;8.60;99.90;;;8.54;100.00;102009.66;5187140;28;20504;-79
2023/05/18 01:16:54;;;;;;;3.03;1.77;;;8.50;99.90;;;8.53;100.00;102013.03;5177530;28;20058;-78
2023/05/18 01:20:07;;;;;;;3.45;1.83;;;8.50;99.90;;;8.52;100.00;102005.16;5151743;28;20420;-80
2023/05/18 01:23:08;;;;;;;4.22;1.42;;;8.50;99.90;;;8.54;100.00;102011.34;5145711;28;20052;-79
2023/05/18 01:25:50;;;;;;;5.38;1.92;;;8.50;99.90;;;8.51;100.00;102000.78;5168040;28;20046;-80
2023/05/18 01:28:29;;;;;;;4.10;1.92;;;8.50;99.90;;;8.47;100.00;102011.75;5152198;28;20054;-80
2023/05/18 01:31:03;;;;;;;3.72;1.75;;;8.40;99.90;;;8.41;100.00;102008.00;5169807;28;20045;-79
2023/05/18 01:33:37;;;;;;;4.60;1.77;;;8.40;99.90;;;8.42;100.00;102009.81;5165756;28;20042;-78
2023/05/18 01:36:10;;;;;;;4.13;1.60;;;8.40;99.90;;;8.40;100.00;102000.97;5190845;28;20041;-79
2023/05/18 01:38:44;;;;;;;6.90;1.83;;;8.40;99.90;;;8.38;100.00;102007.78;5153324;28;20060;-79
2023/05/18 01:41:22;;;;;;;4.50;1.75;;;8.40;99.90;;;8.34;100.00;102016.16;5178826;28;20041;-79
2023/05/18 01:44:05;;;;;;;3.42;1.58;;;8.30;99.90;;;8.29;100.00;102012.38;5169878;28;20054;-80
2023/05/18 01:46:48;;;;;;;4.35;2.25;;;8.30;99.90;;;8.28;100.00;102010.59;5168836;28;20046;-79
2023/05/18 01:49:28;;;;;;;3.13;1.73;;;8.30;99.90;;;8.24;100.00;102013.78;5179046;28;20499;-79
2023/05/18 01:52:06;;;;;;;3.90;1.67;;;8.30;99.90;;;8.21;100.00;102017.88;5162094;28;20046;-78
2023/05/18 01:54:45;;;;;;;3.63;1.92;;;8.20;99.90;;;8.16;100.00;102023.69;5179880;28;20038;-79
2023/05/18 01:57:21;;;;;;;3.17;1.90;;;8.20;99.90;;;8.12;100.00;102021.69;5186138;28;20061;-78
2023/05/18 01:59:55;;;;;;;5.00;1.80;;;8.20;99.90;;;8.10;100.00;102025.00;5162505;28;20052;-79
2023/05/18 02:02:27;;;;;;;4.80;1.92;;;8.10;99.90;;;8.05;100.00;102016.91;5166231;28;20085;-79
2023/05/18 02:04:59;;;;;;;4.32;1.75;;;8.00;99.90;;;8.01;100.00;102012.31;5164141;28;20049;-80
2023/05/18 02:07:31;;;;;;;5.22;1.88;;;8.10;99.90;;;7.98;100.00;102016.44;5176629;28;20120;-79
2023/05/18 02:10:04;;;;;;;3.88;1.70;;;8.00;99.90;;;7.92;100.00;102013.44;5163509;28;20050;-80
2023/05/18 02:12:36;;;;;;;3.67;1.70;;;8.00;99.90;;;7.88;100.00;102015.81;5160976;28;20108;-79
2023/05/18 02:15:11;;;;;;;4.03;1.50;;;7.90;99.90;;;7.85;100.00;102002.66;5163447;28;20416;-79
2023/05/18 02:17:43;;;;;;;3.45;1.73;;;7.90;99.90;;;7.83;100.00;102014.63;5166090;28;20500;-79
2023/05/18 02:20:17;;;;;;;4.15;1.63;;;7.90;99.90;;;7.81;100.00;102004.94;5180127;28;20057;-78
2023/05/18 02:22:49;;;;;;;2.25;1.60;;;7.80;99.90;;;7.76;100.00;102009.84;5169735;28;20046;-78
2023/05/18 02:25:21;;;;;;;3.88;1.77;;;7.80;99.90;;;7.73;100.00;102007.03;5173573;28;20054;-79
2023/05/18 02:27:53;;;;;;;3.45;1.80;;;7.80;99.90;;;7.70;100.00;102009.44;5178705;28;20042;-78
2023/05/18 02:30:28;;;;;;;2.20;1.63;;;7.70;99.90;;;7.67;100.00;102017.00;5178276;28;20045;-79
2023/05/18 02:33:00;;;;;;;4.07;1.80;;;7.70;99.90;;;7.63;100.00;102009.84;5185774;28;20042;-79
2023/05/18 02:35:32;;;;;;;2.70;1.77;;;7.60;99.90;;;7.62;100.00;102013.22;5175297;28;20045;-79
2023/05/18 02:38:04;;;;;;;6.95;1.70;;;7.70;99.90;;;7.59;100.00;102003.53;5159743;28;20046;-79
2023/05/18 02:40:36;;;;;;;3.72;1.90;;;7.60;99.90;;;7.58;100.00;102006.03;5167535;28;20121;-79
2023/05/18 02:43:08;;;;;;;3.53;1.80;;;7.60;99.90;;;7.60;100.00;102015.72;5161348;28;20078;-79
2023/05/18 02:45:41;;;;;;;4.75;2.08;;;7.70;99.90;;;7.64;100.00;102023.72;5164509;28;20061;-79
2023/05/18 02:48:13;;;;;;;5.43;1.85;;;7.70;99.90;;;7.63;100.00;102015.03;5164474;28;20046;-78
2023/05/18 02:50:48;;;;;;;3.45;1.67;;;7.60;99.90;;;7.61;100.00;102020.09;5169153;28;20096;-79
2023/05/18 02:53:21;;;;;;;3.67;1.58;;;7.60;99.90;;;7.59;100.00;102011.31;5185367;28;20041;-79
2023/05/18 02:55:56;;;;;;;4.57;1.67;;;7.60;99.90;;;7.55;100.00;102026.59;5181973;28;20040;-79
2023/05/18 02:58:34;;;;;;;3.28;1.85;;;7.60;99.90;;;7.48;100.00;102021.78;5161572;28;20094;-78
2023/05/18 03:01:14;;;;;;;3.45;1.55;;;7.50;99.90;;;7.44;100.00;102019.81;5168351;28;20125;-79
2023/05/18 03:03:53;;;;;;;2.78;1.70;;;7.50;99.90;;;7.41;100.00;102022.19;5148170;28;20046;-79
2023/05/18 03:06:26;;;;;;;3.05;1.60;;;7.50;99.90;;;7.38;100.00;102024.56;5150012;28;20057;-79
2023/05/18 03:08:59;;;;;;;2.92;1.70;;;7.40;99.90;;;7.37;100.00;102020.16;5164425;28;20054;-79
2023/05/18 03:11:45;;;;;;;3.38;1.52;;;7.40;99.90;;;7.34;100.00;102026.94;5164457;28;20050;-79
2023/05/18 03:14:17;;;;;;;3.15;1.63;;;7.40;99.90;;;7.32;100.00;102032.84;5168537;28;20050;-76
2023/05/18 03:16:53;;;;;;;3.63;1.88;;;7.40;99.90;;;7.27;100.00;102027.34;5160086;28;20053;-79
2023/05/18 03:19:27;;;;;;;3.95;1.70;;;7.30;99.90;;;7.24;100.00;102029.75;5167948;28;20088;-78
2023/05/18 03:21:59;;;;;;;4.13;1.75;;;7.30;99.90;;;7.20;100.00;102024.22;5156199;28;20452;-78
2023/05/18 03:24:39;;;;;;;4.10;2.17;;;7.30;99.90;;;7.16;100.00;102030.88;5163899;28;20081;-79
2023/05/18 03:27:16;;;;;;;4.07;1.92;;;7.20;99.90;;;7.13;100.00;102034.97;5157500;28;20110;-79
2023/05/18 03:29:48;;;;;;;2.88;1.85;;;7.20;99.90;;;7.09;100.00;102028.69;5161054;28;20056;-78
2023/05/18 03:32:21;;;;;;;3.05;1.55;;;7.20;99.90;;;7.07;100.00;102032.88;5167098;28;20061;-78
2023/05/18 03:34:54;;;;;;;4.60;1.55;;;7.10;99.90;;;7.05;100.00;102034.47;5165248;28;20084;-79
2023/05/18 03:37:27;;;;;;;2.85;2.13;;;7.10;99.90;;;7.02;100.00;102034.25;5172494;28;20049;-78
2023/05/18 03:40:10;;;;;;;4.75;1.75;;;7.10;99.90;;;7.01;100.00;102035.03;5173469;28;20046;-78
2023/05/18 03:42:43;;;;;;;3.63;2.40;;;7.10;99.90;;;6.98;100.00;102034.84;5152159;28;20046;-79
2023/05/18 03:45:15;;;;;;;3.70;1.70;;;7.10;99.90;;;6.97;100.00;102038.19;5167784;28;20622;-78
2023/05/18 03:47:50;;;;;;;4.93;1.70;;;7.00;99.90;;;6.97;100.00;102038.19;5172231;28;20591;-79
2023/05/18 03:50:22;;;;;;;2.83;1.70;;;7.00;99.90;;;6.96;100.00;102036.41;5179387;28;20477;-79
2023/05/18 03:52:54;;;;;;;3.25;1.73;;;7.00;99.90;;;6.95;100.00;102040.69;5189778;28;20115;-79
2023/05/18 03:55:26;;;;;;;3.05;1.80;;;7.00;99.90;;;6.93;100.00;102042.28;5177562;28;20522;-79
2023/05/18 03:57:59;;;;;;;3.80;1.55;;;7.00;99.90;;;6.92;100.00;102039.59;5166013;28;20074;-79
2023/05/18 04:00:31;;;;;;;4.32;1.83;;;7.00;99.90;;;6.93;100.00;102038.81;5161569;28;20045;-79
2023/05/18 04:03:05;;;;;;;5.18;2.10;;;7.00;99.90;;;6.93;100.00;102031.91;5182035;28;20117;-78
2023/05/18 04:05:37;;;;;;;2.97;1.65;;;7.00;99.90;;;6.95;100.00;102039.78;5184918;28;20046;-79
2023/05/18 04:08:13;;;;;;;3.15;1.70;;;7.00;99.90;;;6.96;100.00;102046.78;5162421;28;20420;-78
2023/05/18 04:10:45;;;;;;;4.47;1.63;;;7.00;99.90;;;6.96;100.00;102037.31;5170487;28;20042;-77
2023/05/18 04:13:18;;;;;;;3.33;1.67;;;7.00;99.90;;;6.98;100.00;102040.03;5171056;28;20530;-78
2023/05/18 04:15:50;;;;;;;1.77;1.55;;;7.00;99.90;;;7.00;100.00;102044.50;5179378;28;20054;-79
2023/05/18 04:18:28;;;;;;;5.85;2.17;;;7.10;99.90;;;7.07;100.00;102043.25;5163308;28;20092;-79
2023/05/18 04:21:01;;;;;;;5.38;2.83;;;7.10;99.90;;;7.16;100.00;102041.25;5188649;28;20049;-79
2023/05/18 04:23:37;;;;;;;5.15;2.70;;;7.20;99.90;;;7.31;100.00;102039.72;5180653;28;20089;-79
2023/05/18 04:26:10;;;;;;;5.93;2.30;;;7.30;99.90;;;7.42;100.00;102040.44;5171614;28;20046;-78
2023/05/18 04:28:42;;;;;;;5.70;2.80;;;7.40;99.90;;;7.44;100.00;102044.06;5170272;28;20092;-78
2023/05/18 04:31:16;;;;;;;3.80;2.28;;;7.50;99.90;;;7.45;100.00;102044.94;5175522;28;20042;-78
2023/05/18 04:33:50;;;;;;;3.28;2.30;;;7.50;99.90;;;7.44;100.00;102038.88;5188076;28;20056;-79
2023/05/18 04:36:24;;;;;;;5.82;2.30;;;7.50;99.90;;;7.44;100.00;102040.56;5162845;28;20129;-78
2023/05/18 04:38:58;;;;;;;4.40;2.17;;;7.50;99.90;;;7.45;100.00;102050.13;5163929;28;20069;-78
2023/05/18 04:41:32;;;;;;;4.82;2.25;;;7.50;99.90;;;7.49;100.00;102052.13;5161048;28;20097;-78
2023/05/18 04:44:04;;;;;;;5.90;2.35;;;7.60;99.90;;;7.50;100.00;102046.16;5176230;28;20492;-78
2023/05/18 04:46:39;;;;;;;5.03;2.50;;;7.60;99.90;;;7.56;100.00;102054.31;5167287;28;20133;-78
2023/05/18 04:49:14;;;;;;;5.22;2.25;;;7.60;99.90;;;7.64;100.00;102053.16;5172406;28;20582;-79
2023/05/18 04:51:46;;;;;;;4.28;2.20;;;7.70;99.90;;;7.80;100.00;102058.56;5162418;28;20512;-78
2023/05/18 04:54:19;;;;;;;4.97;2.10;;;7.80;99.90;;;8.10;100.00;102066.56;5165196;28;20392;-78
2023/05/18 04:56:52;;;;;;;5.28;2.35;;;8.00;99.90;;;8.47;100.00;102055.94;5158188;28;20057;-79
2023/05/18 04:59:27;;;;;;;3.80;2.03;;;8.40;99.90;;;8.82;100.00;102059.06;5166644;28;20101;-79
2023/05/18 05:02:00;;;;;;;6.72;2.42;;;8.70;99.90;;;9.18;100.00;102060.41;5165397;28;20393;-79
2023/05/18 05:04:33;;;;;;;7.28;2.50;;;9.00;99.90;;;9.54;100.00;102059.91;5155437;28;20035;-79
2023/05/18 05:07:05;;;;;;;6.15;2.72;;;9.30;99.90;;;9.84;100.00;102059.06;5163760;28;20444;-78
2023/05/18 05:09:38;;;;;;;6.40;3.13;;;9.60;99.90;;;10.10;97.66;102065.78;5169700;28;20045;-78
2023/05/18 05:12:10;;;;;;;6.85;2.95;;;9.90;99.90;;;10.39;96.32;102067.47;5163503;28;20056;-79
2023/05/18 05:14:42;;;;;;;7.63;3.00;;;10.10;99.90;;;10.66;94.63;102059.38;5183611;28;20518;-78
2023/05/18 05:17:14;;;;;;;7.78;3.28;;;10.40;99.90;;;10.93;93.06;102068.66;5168419;28;20046;-78
2023/05/18 05:19:47;;;;;;;7.80;3.33;;;10.60;99.90;;;11.21;90.39;102067.50;5165483;28;20045;-79
2023/05/18 05:22:19;;;;;;;6.05;3.03;;;10.90;99.90;;;11.45;87.48;102073.13;5164680;28;20056;-77
2023/05/18 05:24:52;;;;;;;6.63;2.95;;;11.10;99.90;;;11.67;87.37;102073.38;5184163;28;20045;-80
2023/05/18 05:27:25;;;;;;;6.38;2.60;;;11.30;99.90;;;11.82;86.87;102065.47;5174638;28;20038;-81
2023/05/18 05:29:58;;;;;;;5.78;2.58;;;11.50;99.90;;;12.06;86.24;102076.22;5164553;28;20058;-81
2023/05/18 05:32:30;;;;;;;8.52;3.20;;;11.70;99.90;;;12.29;84.95;102072.13;5195780;28;20041;-82
2023/05/18 05:35:03;;;;;;;6.38;2.53;;;11.90;99.90;;;12.44;83.44;102070.22;5168809;28;20507;-81
2023/05/18 05:37:36;;;;;;;6.88;3.45;;;12.10;99.90;;;12.58;83.18;102070.88;5157383;28;20133;-81
2023/05/18 05:40:10;;;;;;;7.30;2.70;;;12.20;99.90;;;12.71;82.24;102074.16;5162219;28;20052;-83
2023/05/18 05:42:47;;;;;;;6.72;2.58;;;12.30;99.90;;;12.82;82.43;102077.25;5172152;28;20042;-81
2023/05/18 05:45:20;;;;;;;6.65;2.60;;;12.40;99.90;;;13.01;81.64;102077.25;5187946;28;20431;-81
2023/05/18 05:47:59;;;;;;;5.95;2.47;;;12.60;99.90;;;13.26;80.44;102078.41;5163703;28;20064;-81
2023/05/18 05:50:33;;;;;;;5.40;2.53;;;12.80;99.30;;;13.45;79.13;102077.47;5163752;28;20421;-79
2023/05/18 05:53:07;;;;;;;5.32;2.50;;;13.00;98.60;;;13.64;75.89;102085.31;5187436;28;20736;-80
2023/05/18 05:55:42;;;;;;;10.43;3.05;;;13.20;96.70;;;13.69;74.44;102083.78;5161131;28;20050;-83
2023/05/18 05:58:18;;;;;;;7.03;2.15;;;13.20;95.70;;;13.82;75.69;102072.06;5159889;28;20045;-82
2023/05/18 06:00:58;;;;;;;4.40;1.83;;;13.40;96.30;;;13.98;75.33;102068.38;5171798;28;20022;-82
2023/05/18 06:03:31;;;;;;;3.45;1.90;;;13.50;96.00;;;14.00;74.62;102078.06;5162348;28;20478;-82
2023/05/18 06:06:07;;;;;;;6.63;2.10;;;13.60;95.50;;;14.13;74.11;102089.97;5156143;28;20038;-83
2023/05/18 06:08:40;;;;;;;6.95;2.45;;;13.60;94.90;;;14.32;72.90;102082.00;5170992;28;20038;-83
2023/05/18 06:11:12;;;;;;;6.53;2.40;;;13.80;94.30;;;14.52;71.50;102085.44;5154754;28;20500;-83
2023/05/18 06:13:45;;;;;;;6.82;3.55;;;14.00;93.30;;;14.66;70.59;102083.34;5174186;28;20048;-84
2023/05/18 06:16:18;;;;;;;6.38;2.70;;;14.20;92.60;;;14.76;71.61;102085.50;5175429;28;20057;-83
2023/05/18 06:18:50;;;;;;;6.60;2.53;;;14.30;92.80;;;14.90;72.01;102086.03;5190672;28;20543;-83
2023/05/18 06:21:23;;;;;;;6.15;1.88;;;14.40;93.10;;;15.11;71.56;102085.91;5173987;28;20048;-82
2023/05/18 06:23:56;;;;;;;4.63;2.25;;;14.60;92.80;;;15.22;69.68;102092.47;5176314;28;20045;-83
2023/05/18 06:26:48;;;;;;;7.57;2.90;;;14.70;91.50;;;15.13;69.70;102090.41;5178643;28;20064;-82
2023/05/18 06:29:40;;;;;;;3.28;1.85;;;14.70;91.30;;;15.20;69.49;102099.41;5168053;28;20065;-84
2023/05/18 06:32:29;;;;;;;7.05;2.35;;;14.70;91.00;;;15.24;69.37;102101.28;5172848;28;20038;-83
2023/05/18 06:35:03;;;;;;;3.83;1.83;;;14.70;90.70;;;15.15;68.58;102106.22;5159400;28;20070;-83
2023/05/18 06:37:37;;;;;;;5.13;1.88;;;14.70;90.20;;;15.29;68.04;102097.09;5172455;28;20049;-81
2023/05/18 06:40:10;;;;;;;11.75;2.75;;;14.80;90.00;;;15.49;67.42;102103.06;5161567;28;20508;-83
2023/05/18 06:42:42;;;;;;;3.40;1.95;;;14.90;88.90;;;15.75;66.20;102096.13;5178843;28;20136;-84
2023/05/18 06:45:32;;;;;;;5.65;1.73;;;15.10;87.30;;;15.95;64.77;102102.94;5178314;28;20127;-84
2023/05/18 06:48:16;;;;;;;4.57;1.83;;;15.40;85.00;;;16.16;63.82;102104.50;5165371;28;20046;-83
2023/05/18 06:50:48;;;;;;;5.40;1.65;;;15.60;83.40;;;16.18;63.56;102103.72;5177260;28;20041;-84
2023/05/18 06:53:22;;;;;;;4.72;1.67;;;15.70;82.60;;;16.16;63.92;102101.88;5210693;28;20046;-85
2023/05/18 06:55:54;;;;;;;5.28;2.22;;;15.70;82.30;;;16.12;64.56;102102.63;5187089;28;20046;-84
2023/05/18 06:58:27;;;;;;;8.13;1.88;;;15.60;82.90;;;16.32;65.20;102106.78;5166441;28;20397;-85
2023/05/18 07:01:01;;;;;;;4.85;1.45;;;15.70;83.80;;;16.49;64.63;102104.69;5168304;28;20138;-85
2023/05/18 07:03:34;;;;;;;5.40;1.50;;;15.90;83.30;;;16.77;63.11;102106.47;5186149;28;20049;-86
2023/05/18 07:06:07;;;;;;;6.55;2.22;;;16.20;81.30;;;17.04;62.94;102107.28;5189176;28;20046;-84
2023/05/18 07:08:40;;;;;;;4.47;1.98;;;16.40;80.90;;;17.12;61.90;102117.16;5155934;28;20123;-84
2023/05/18 07:11:12;;;;;;;5.13;1.63;;;16.50;79.20;;;17.09;61.46;102113.59;5207377;28;20045;-86
2023/05/18 07:13:44;;;;;;;5.03;1.63;;;16.60;78.10;;;17.14;61.21;102102.28;5193720;28;20046;-86
2023/05/18 07:16:16;;;;;;;5.72;1.50;;;16.60;77.30;;;17.21;60.94;102104.22;5176054;28;20431;-85
2023/05/18 07:18:48;;;;;;;6.05;2.13;;;16.70;76.90;;;17.29;61.69;102113.28;5198410;28;20054;-83
2023/05/18 07:21:21;;;;;;;3.38;1.42;;;16.70;77.50;;;17.38;61.29;102102.97;5162393;28;20420;-83
2023/05/18 07:23:54;;;;;;;4.53;1.85;;;16.80;77.20;;;17.62;61.34;102098.38;5168267;28;20041;-84
2023/05/18 07:26:26;;;;;;;4.75;2.03;;;16.90;77.40;;;17.93;61.56;102104.47;5190228;28;20038;-83
2023/05/18 07:28:58;;;;;;;5.60;1.83;;;17.20;77.60;;;18.08;61.21;102103.97;5178626;28;20053;-82
2023/05/18 07:31:32;;;;;;;5.15;1.55;;;17.40;76.80;;;18.17;60.56;102094.50;5175019;28;20054;-84
2023/05/18 07:34:04;;;;;;;3.58;1.50;;;17.50;76.10;;;18.42;60.90;102097.75;5192282;28;20021;-85
2023/05/18 07:36:36;;;;;;;4.53;1.58;;;17.70;76.60;;;18.46;60.70;102094.31;5183653;28;20042;-86
2023/05/18 07:39:17;;;;;;;4.75;1.77;;;17.80;76.10;;;18.45;60.05;102095.16;5189688;28;20038;-87
2023/05/18 07:41:49;;;;;;;3.72;1.42;;;17.70;75.30;;;18.49;59.59;102090.84;5183166;28;20052;-82
2023/05/18 07:44:21;;;;;;;5.75;1.50;;;17.80;74.60;;;18.62;60.26;102088.53;5182942;28;20050;-87
2023/05/18 07:46:53;;;;;;;3.88;1.42;;;17.90;75.00;;;18.80;58.79;102079.25;5176311;28;20035;-81
2023/05/18 07:49:25;;;;;;;3.22;1.50;;;18.00;73.60;;;19.03;59.79;102080.59;5182730;28;20042;-80
2023/05/18 07:51:58;;;;;;;2.65;1.15;;;18.10;74.70;;;19.26;58.19;102078.44;5173845;28;20042;-82
2023/05/18 07:54:31;;;;;;;4.40;1.45;;;18.40;73.20;;;19.39;58.02;102084.84;5177295;28;20042;-82
2023/05/18 07:57:04;;;;;;;3.65;1.25;;;18.50;72.90;;;19.63;57.67;102079.19;5188965;28;20038;-86
2023/05/18 07:59:36;;;;;;;3.88;1.65;;;18.70;72.50;;;19.94;57.47;102069.97;5176280;28;20196;-86
2023/05/18 08:02:08;;;;;;;5.57;1.40;;;18.90;72.40;;;20.12;56.20;102075.56;5190884;28;20052;-88
2023/05/18 08:04:40;;;;;;;4.68;1.75;;;19.00;70.80;;;20.43;56.59;102076.06;5187809;28;20504;-81
2023/05/18 08:07:13;;;;;;;3.60;1.02;;;19.20;71.10;;;20.93;55.07;102078.50;5199064;28;20037;-89
2023/05/18 08:09:46;;;;;;;5.82;1.55;;;19.50;70.10;;;21.30;54.48;102080.75;5173839;28;20046;-82
2023/05/18 08:12:19;;;;;;;2.60;1.00;;;19.70;69.30;;;21.79;53.12;102075.97;5170289;28;20470;-84
2023/05/18 08:14:51;;;;;;;3.25;0.90;;;20.00;68.30;;;22.29;52.62;102067.50;5187670;28;20042;-86
2023/05/18 08:17:23;;;;;;;5.70;1.23;;;20.30;67.80;;;22.92;51.57;102070.53;5171137;28;20148;-85
2023/05/18 08:19:55;;;;;;;4.30;1.15;;;20.60;66.90;;;23.28;49.83;102064.47;5175469;28;20072;-85
2023/05/18 08:22:27;;;;;;;3.50;1.00;;;20.80;65.00;;;24.00;48.99;102072.56;5189342;28;20042;-86
2023/05/18 08:25:01;;;;;;;4.07;1.15;;;21.20;64.50;;;24.58;47.27;102072.44;5179509;28;20045;-85
2023/05/18 08:27:33;;;;;;;5.05;1.05;;;21.60;62.80;;;25.31;47.00;102065.97;5191698;28;20138;-82
2023/05/18 08:30:07;;;;;;;4.38;1.27;;;21.90;62.60;;;26.00;45.69;102062.78;5196985;28;20049;-84
2023/05/18 08:32:39;;;;;;;4.63;1.23;;;22.20;61.90;;;26.84;44.28;102059.22;5197080;28;20042;-84
2023/05/18 08:35:11;;;;;;;2.40;0.80;;;22.70;61.50;;;27.62;43.30;102059.00;5177548;28;20181;-83
2023/05/18 08:37:43;;;;;;;4.18;1.23;;;23.20;59.90;;;28.37;42.66;102058.66;5158875;28;20046;-87
2023/05/18 08:40:16;;;;;;;4.50;1.17;;;23.90;59.00;;;28.83;41.01;102060.41;5169809;28;20089;-86
2023/05/18 08:43:03;;;;;;;2.50;1.00;;;24.40;56.70;;;29.12;38.88;102054.41;5204901;28;20045;-86
2023/05/18 08:45:41;;;;;;;6.00;1.30;;;25.00;54.20;;;28.83;38.77;102052.34;5192872;28;20038;-87
2023/05/18 08:48:16;;;;;;;3.53;1.17;;;25.20;53.10;;;29.08;39.95;102052.72;5192338;28;20072;-87
2023/05/18 08:50:50;;;;;;;3.22;1.15;;;25.40;54.00;;;29.47;39.44;102050.00;5192030;28;20045;-85
2023/05/18 08:53:25;;;;;;;4.20;1.42;;;25.70;53.60;;;29.45;39.06;102046.47;5188251;28;20050;-86
2023/05/18 08:56:00;;;;;;;4.00;1.15;;;25.70;52.70;;;29.82;38.76;102046.50;5173930;28;20050;-85
2023/05/18 08:58:38;;;;;;;3.47;1.02;;;25.90;52.50;;;30.43;38.11;102055.63;5199388;28;20045;-85
2023/05/18 09:01:11;;;;;;;4.40;1.10;;;26.30;52.30;;;30.90;37.09;102050.66;5185901;28;20407;-86
2023/05/18 09:03:48;;;;;;;4.00;0.93;;;26.80;51.40;;;30.20;36.66;102058.06;5192700;28;20046;-84
2023/05/18 09:06:23;;;;;;;3.55;1.10;;;26.50;50.10;;;30.26;36.44;102057.91;5193893;28;20029;-89
2023/05/18 09:08:57;;;;;;;4.07;1.27;;;26.50;49.90;;;28.94;37.02;102049.44;5184998;28;20046;-87
2023/05/18 09:11:32;;;;;;;;;;;26.00;50.00;;;27.39;38.78;102047.78;5188493;28;20053;-82
2023/05/18 09:14:04;;;;;;;3.38;1.30;;;25.10;50.00;;;27.39;39.59;102042.44;5166557;28;19922;-83
2023/05/18 09:16:36;;;;;;;3.92;1.17;;;24.80;51.20;;;26.47;40.00;102038.25;5183045;28;20046;-85
2023/05/18 09:19:09;;;;;;;4.15;1.20;;;24.30;51.00;;;26.20;41.54;102042.97;5204246;28;20060;-82
2023/05/18 09:21:41;;;;;;;3.33;1.25;;;24.00;52.40;;;25.70;40.94;102038.97;5200805;28;20045;-81
2023/05/18 09:24:14;;;;;;;4.78;1.20;;;23.70;51.70;;;24.58;41.61;102037.78;5168396;28;20061;-82
2023/05/18 09:26:47;;;;;;;4.03;0.90;;;23.20;51.70;;;23.48;42.85;102032.56;5178281;28;20053;-83
2023/05/18 09:29:22;;;;;;;5.20;1.30;;;22.40;52.20;;;22.58;44.83;102032.25;5200622;28;20062;-82
2023/05/18 09:31:55;;;;;;;3.83;1.00;;;21.70;53.90;;;22.17;46.52;102024.97;5207074;28;20090;-86
2023/05/18 09:34:40;;;;;;;5.88;1.30;;;21.20;55.10;;;22.21;47.82;102027.63;5182332;28;20041;-88
2023/05/18 09:37:16;;;;;;;2.47;1.00;;;21.20;56.80;;;21.97;47.32;102021.22;5177158;28;20458;-85
2023/05/18 09:39:59;;;;;;;2.88;1.08;;;21.00;56.10;;;21.45;47.92;102020.78;5197597;28;20450;-86
2023/05/18 09:42:41;;;;;;;3.65;1.10;;;20.70;56.40;;;20.96;48.49;102026.44;5205868;28;20041;-88
2023/05/18 09:45:18;;;;;;;2.97;1.10;;;20.30;56.80;;;21.00;50.04;102027.38;5197823;28;20506;-86
2023/05/18 09:47:51;;;;;;;4.85;1.20;;;20.30;58.30;;;21.21;48.98;102017.00;5203874;28;20509;-86
2023/05/18 09:50:25;;;;;;;2.58;1.00;;;20.40;57.80;;;21.37;48.56;102018.94;5209257;28;20037;-86
2023/05/18 09:52:57;;;;;;;5.32;1.40;;;20.50;57.30;;;21.57;48.30;102015.59;5179962;28;20050;-85
2023/05/18 09:55:29;;;;;;;3.60;0.95;;;20.70;57.10;;;21.69;49.26;102015.69;5204160;28;20037;-86
2023/05/18 09:58:03;;;;;;;4.05;1.38;;;20.80;57.90;;;21.84;47.06;102014.91;5192230;28;20042;-85
2023/05/18 10:00:41;;;;;;;4.57;1.10;;;20.90;56.10;;;21.90;47.12;102010.56;5184362;28;20121;-84
2023/05/18 10:03:21;;;;;;;4.47;1.20;;;21.00;56.10;;;22.02;47.80;102015.06;5183036;28;20042;-86
2023/05/18 10:05:54;;;;;;;3.70;1.02;;;21.10;56.70;;;22.20;47.07;102009.03;5178154;28;20052;-86
2023/05/18 10:08:26;;;;;;;3.25;1.27;;;21.20;56.20;;;22.36;47.64;101994.94;5185292;28;20053;-86
2023/05/18 10:10:58;;;;;;;4.35;1.20;;;21.40;56.40;;;22.44;48.33;101997.66;5197082;28;20069;-85
2023/05/18 10:13:33;;;;;;;3.20;1.42;;;21.50;57.20;;;22.00;45.62;101994.72;5174667;28;20042;-84
2023/05/18 10:16:08;;;;;;;5.03;1.20;;;21.30;54.40;;;21.68;46.60;101990.94;5204713;28;20065;-82
2023/05/18 10:18:41;;;;;;;3.67;1.20;;;21.10;55.20;;;21.47;45.80;101992.53;5194003;28;20057;-86
2023/05/18 10:21:16;;;;;;;4.85;1.17;;;20.90;54.20;;;21.46;46.04;101991.63;5198365;28;20048;-85
2023/05/18 10:23:50;;;;;;;3.83;1.05;;;20.90;54.80;;;21.67;46.19;101982.97;5167493;28;20060;-86
2023/05/18 10:26:25;;;;;;;5.22;1.27;;;21.00;54.90;;;21.94;47.33;101983.16;5169793;28;20046;-82
2023/05/18 10:29:00;;;;;;;5.80;1.40;;;21.10;55.90;;;22.02;46.46;101983.19;5183898;28;20413;-83
2023/05/18 10:31:36;;;;;;;3.35;1.27;;;21.30;55.40;;;22.17;46.24;101974.50;5177247;28;20100;-84
2023/05/18 10:34:09;;;;;;;3.83;1.17;;;21.40;55.30;;;22.28;46.10;101967.44;5152615;28;20062;-85
2023/05/18 10:36:42;;;;;;;3.75;1.15;;;21.50;55.00;;;22.34;45.16;101979.88;5169761;28;20050;-85
2023/05/18 10:39:14;;;;;;;3.20;1.40;;;21.60;54.20;;;22.47;45.95;101979.94;5152193;28;20054;-82
2023/05/18 10:41:48;;;;;;;2.35;0.70;;;21.60;54.90;;;22.60;45.73;101972.91;5168229;28;20065;-83
2023/05/18 10:44:24;;;;;;;2.75;1.17;;;21.70;54.70;;;22.62;45.87;101971.13;5170711;28;20073;-85
2023/05/18 10:46:57;;;;;;;3.63;1.20;;;21.80;54.80;;;22.59;44.85;101971.13;5170158;28;20054;-85